createdAt,value
2023-05-13T00:01:20.277Z,128.71
2023-05-13T00:04:27.081Z,140.69
2023-05-13T00:07:33.034Z,140.16
2023-05-13T00:10:40.180Z,145.79
2023-05-13T00:13:46.202Z,140.57
2023-05-13T00:16:55.978Z,142.54
2023-05-13T00:20:01.887Z,137.00
2023-05-13T00:23:08.974Z,142.84
2023-05-13T00:26:15.079Z,135.39
2023-05-13T00:29:24.939Z,135.46
2023-05-13T00:32:33.470Z,140.89
2023-05-13T00:35:40.766Z,136.76
2023-05-13T00:38:47.980Z,135.86
2023-05-13T00:41:55.373Z,135.98
2023-05-13T00:45:01.410Z,124.16
2023-05-13T00:48:12.479Z,139.15
2023-05-13T00:51:18.979Z,132.68
2023-05-13T00:54:25.724Z,136.37
2023-05-13T00:57:32.777Z,129.95
2023-05-13T01:00:51.602Z,135.23
2023-05-13T01:04:17.971Z,130.08
2023-05-13T01:07:42.961Z,139.22
2023-05-13T01:10:57.641Z,138.72
2023-05-13T01:14:14.768Z,151.11
2023-05-13T01:17:32.160Z,147.74
2023-05-13T01:20:45.879Z,143.08
2023-05-13T01:23:54.521Z,144.92
2023-05-13T01:27:10.203Z,151.56
2023-05-13T01:30:17.642Z,149.70
2023-05-13T01:33:25.827Z,155.73
2023-05-13T01:36:32.470Z,158.54
2023-05-13T01:39:43.332Z,151.01
2023-05-13T01:42:56.370Z,149.15
2023-05-13T01:46:05.010Z,150.95
2023-05-13T01:49:11.155Z,158.13
2023-05-13T01:52:18.130Z,159.40
2023-05-13T01:55:27.487Z,161.16
2023-05-13T01:58:36.501Z,156.26
2023-05-13T02:01:43.139Z,156.27
2023-05-13T02:04:50.044Z,180.71
2023-05-13T02:08:03.050Z,175.26
2023-05-13T02:11:18.759Z,180.72
2023-05-13T02:14:24.875Z,181.62
2023-05-13T02:17:31.771Z,184.90
2023-05-13T02:20:37.806Z,189.39
2023-05-13T02:23:44.592Z,191.09
2023-05-13T02:26:53.323Z,196.57
2023-05-13T02:30:00.224Z,188.28
2023-05-13T02:33:10.725Z,185.77
2023-05-13T02:36:17.761Z,182.56
2023-05-13T02:39:24.368Z,181.61
2023-05-13T02:42:36.171Z,183.88
2023-05-13T02:45:44.570Z,182.65
2023-05-13T02:48:51.552Z,176.05
2023-05-13T02:51:57.550Z,179.36
2023-05-13T02:55:13.316Z,181.08
2023-05-13T02:58:21.994Z,178.66
2023-05-13T03:01:29.616Z,214.00
2023-05-13T03:04:35.529Z,187.39
2023-05-13T03:07:42.305Z,194.03
2023-05-13T03:10:51.745Z,198.04
2023-05-13T03:14:05.952Z,197.99
2023-05-13T03:17:15.191Z,200.57
2023-05-13T03:20:28.690Z,210.09
2023-05-13T03:23:38.498Z,208.87
2023-05-13T03:26:47.180Z,218.15
2023-05-13T03:30:07.122Z,249.24
2023-05-13T03:33:20.886Z,36698.42
2023-05-13T03:36:27.283Z,52515.57
2023-05-13T03:39:34.503Z,26475.01
2023-05-13T03:42:40.723Z,35539.34
2023-05-13T03:45:51.847Z,45495.13
2023-05-13T03:49:01.270Z,25865.90
2023-05-13T03:52:10.975Z,33526.41
2023-05-13T03:55:17.015Z,56416.72
2023-05-13T03:58:24.213Z,31723.13
2023-05-13T04:01:33.480Z,694.14
2023-05-13T04:04:40.514Z,223.25
2023-05-13T04:07:46.799Z,211.36
2023-05-13T04:10:53.771Z,215.66
2023-05-13T04:13:59.982Z,197.95
2023-05-13T04:17:09.841Z,195.53
2023-05-13T04:20:16.371Z,188.94
2023-05-13T04:23:23.095Z,188.15
2023-05-13T04:26:29.302Z,177.54
2023-05-13T04:29:36.178Z,180.02
2023-05-13T04:32:44.768Z,182.38
2023-05-13T04:35:53.209Z,185.97
2023-05-13T04:38:59.109Z,181.49
2023-05-13T04:42:06.439Z,176.28
2023-05-13T04:45:17.975Z,174.67
2023-05-13T04:48:37.609Z,159.78
2023-05-13T04:51:43.885Z,160.98
2023-05-13T04:54:53.181Z,165.71
2023-05-13T04:57:59.295Z,166.65
2023-05-13T05:01:06.370Z,168.96
2023-05-13T05:04:16.376Z,164.94
2023-05-13T05:07:26.408Z,168.58
2023-05-13T05:10:32.548Z,168.51
2023-05-13T05:13:42.434Z,172.24
2023-05-13T05:16:49.232Z,184.53
2023-05-13T05:19:59.526Z,185.77
2023-05-13T05:23:05.854Z,186.77
2023-05-13T05:26:13.476Z,183.43
2023-05-13T05:29:29.190Z,179.79
2023-05-13T05:32:36.957Z,189.78
2023-05-13T05:35:47.052Z,178.87
2023-05-13T05:38:56.631Z,163.93
2023-05-13T05:42:19.976Z,156.30
2023-05-13T05:45:26.784Z,169.05
2023-05-13T05:48:34.605Z,167.35
2023-05-13T05:51:44.791Z,165.00
2023-05-13T05:54:50.981Z,171.16
2023-05-13T05:57:57.874Z,182.44
2023-05-13T06:01:04.673Z,163.50
2023-05-13T06:04:11.530Z,160.24
2023-05-13T06:07:20.283Z,154.86
2023-05-13T06:10:27.113Z,149.39
2023-05-13T06:13:33.506Z,144.84
2023-05-13T06:16:47.239Z,149.92
2023-05-13T06:19:59.683Z,125.14
2023-05-13T06:23:09.031Z,155.70
2023-05-13T06:26:15.066Z,127.20
2023-05-13T06:29:21.872Z,116.55
2023-05-13T06:32:27.883Z,104.99
2023-05-13T06:35:34.861Z,107.30
2023-05-13T06:38:46.146Z,95.91
2023-05-13T06:41:56.941Z,98.18
2023-05-13T06:45:11.993Z,81.46
2023-05-13T06:48:22.403Z,87.05
2023-05-13T06:51:30.841Z,134.79
2023-05-13T06:54:40.520Z,140.18
2023-05-13T06:57:47.596Z,107.67
2023-05-13T07:00:59.950Z,101.13
2023-05-13T07:04:18.323Z,99.71
2023-05-13T07:07:31.207Z,99.60
2023-05-13T07:10:40.232Z,90.71
2023-05-13T07:13:47.509Z,92.18
2023-05-13T07:16:53.672Z,91.25
2023-05-13T07:20:00.522Z,96.83
2023-05-13T07:23:09.115Z,86.03
2023-05-13T07:26:18.566Z,79.75
2023-05-13T07:29:25.907Z,72.51
2023-05-13T07:32:38.357Z,74.08
2023-05-13T07:35:44.411Z,87.65
2023-05-13T07:38:51.273Z,103.33
2023-05-13T07:41:59.849Z,92.95
2023-05-13T07:45:07.552Z,121.37
2023-05-13T07:48:18.643Z,96.80
2023-05-13T07:51:25.582Z,83.16
2023-05-13T07:54:32.165Z,91.23
2023-05-13T07:57:41.667Z,141.06
2023-05-13T08:00:51.701Z,88.99
2023-05-13T08:03:58.848Z,88.68
2023-05-13T08:07:05.269Z,85.06
2023-05-13T08:10:12.691Z,80.76
2023-05-13T08:13:22.167Z,101.60
2023-05-13T08:16:30.721Z,130.10
2023-05-13T08:19:37.041Z,118.47
2023-05-13T08:22:44.134Z,125.91
2023-05-13T08:25:50.269Z,97.22
2023-05-13T08:29:00.301Z,88.23
2023-05-13T08:32:09.856Z,70.33
2023-05-13T08:35:17.076Z,92.39
2023-05-13T08:38:35.197Z,93.55
2023-05-13T08:41:45.319Z,82.90
2023-05-13T08:44:56.366Z,74.63
2023-05-13T08:48:13.318Z,90.02
2023-05-13T08:51:21.771Z,72.27
2023-05-13T08:54:31.420Z,82.73
2023-05-13T08:57:37.505Z,120.39
2023-05-13T09:00:55.741Z,75.87
2023-05-13T09:04:07.637Z,68.89
2023-05-13T09:07:15.118Z,75.58
2023-05-13T09:10:23.354Z,66.22
2023-05-13T09:13:30.313Z,97.89
2023-05-13T09:16:39.928Z,92.62
2023-05-13T09:19:46.814Z,86.92
2023-05-13T09:22:56.028Z,90.97
2023-05-13T09:26:03.172Z,80.68
2023-05-13T09:29:24.332Z,69.31
2023-05-13T09:32:34.302Z,74.77
2023-05-13T09:35:43.823Z,76.01
2023-05-13T09:38:56.396Z,79.67
2023-05-13T09:42:05.604Z,82.87
2023-05-13T09:45:16.011Z,83.81
2023-05-13T09:48:25.800Z,72.18
2023-05-13T09:51:34.419Z,79.55
2023-05-13T09:54:41.125Z,76.87
2023-05-13T09:57:49.809Z,80.66
2023-05-13T10:00:55.997Z,85.40
2023-05-13T10:04:06.629Z,80.61
2023-05-13T10:07:16.058Z,86.20
2023-05-13T10:10:26.261Z,90.09
2023-05-13T10:13:37.297Z,86.14
2023-05-13T10:16:44.616Z,79.82
2023-05-13T10:19:55.075Z,71.49
2023-05-13T10:23:02.551Z,69.70
2023-05-13T10:26:10.735Z,77.50
2023-05-13T10:29:19.553Z,81.27
2023-05-13T10:32:28.682Z,76.43
2023-05-13T10:35:46.485Z,90.33
2023-05-13T10:39:27.099Z,77.19
2023-05-13T10:43:02.814Z,78.90
2023-05-13T10:46:14.500Z,67.15
2023-05-13T10:49:21.589Z,72.22
2023-05-13T10:52:46.926Z,74.69
2023-05-13T10:55:59.576Z,80.12
2023-05-13T10:59:08.141Z,67.79
2023-05-13T11:02:25.457Z,73.77
2023-05-13T11:05:33.261Z,70.05
2023-05-13T11:08:45.702Z,81.78
2023-05-13T11:11:56.865Z,66.81
2023-05-13T11:15:03.853Z,75.78
2023-05-13T11:18:09.909Z,80.36
2023-05-13T11:21:16.894Z,75.63
2023-05-13T11:24:27.341Z,72.08
2023-05-13T11:27:42.238Z,80.90
2023-05-13T11:30:58.804Z,80.51
2023-05-13T11:34:14.301Z,72.07
2023-05-13T11:37:23.520Z,81.65
2023-05-13T11:40:35.955Z,75.51
2023-05-13T11:43:44.603Z,74.06
2023-05-13T11:46:58.336Z,81.78
2023-05-13T11:50:04.524Z,67.07
2023-05-13T11:53:11.442Z,72.35
2023-05-13T11:56:20.117Z,67.86
2023-05-13T11:59:33.306Z,70.26
2023-05-13T12:02:46.612Z,60.14
2023-05-13T12:05:54.031Z,64.58
2023-05-13T12:09:07.742Z,68.81
2023-05-13T12:12:17.935Z,71.16
2023-05-13T12:15:26.059Z,65.83
2023-05-13T12:18:34.046Z,74.25
2023-05-13T12:21:42.013Z,82.12
2023-05-13T12:24:48.935Z,81.29
2023-05-13T12:27:58.070Z,77.37
2023-05-13T12:31:07.501Z,77.03
2023-05-13T12:34:15.058Z,69.10
2023-05-13T12:37:22.507Z,90.54
2023-05-13T12:40:30.900Z,75.50
2023-05-13T12:43:45.083Z,84.12
2023-05-13T12:46:55.593Z,79.25
2023-05-13T12:50:04.041Z,77.54
2023-05-13T12:53:16.453Z,73.26
2023-05-13T12:56:25.517Z,76.94
2023-05-13T12:59:35.021Z,70.82
2023-05-13T13:02:46.378Z,78.01
2023-05-13T13:05:52.746Z,68.50
2023-05-13T13:08:59.873Z,77.75
2023-05-13T13:12:06.022Z,74.04
2023-05-13T13:15:16.125Z,79.19
2023-05-13T13:18:22.287Z,73.71
2023-05-13T13:21:29.406Z,75.19
2023-05-13T13:24:35.896Z,66.81
2023-05-13T13:27:42.628Z,78.23
2023-05-13T13:30:51.353Z,81.99
2023-05-13T13:34:04.474Z,79.78
2023-05-13T13:37:13.788Z,74.08
2023-05-13T13:40:20.729Z,74.97
2023-05-13T13:43:27.172Z,76.14
2023-05-13T13:46:36.701Z,76.71
2023-05-13T13:49:42.626Z,72.38
2023-05-13T13:52:49.439Z,68.34
2023-05-13T13:55:55.464Z,70.30
2023-05-13T13:59:08.507Z,76.61
2023-05-13T14:02:26.102Z,62.77
2023-05-13T14:05:33.433Z,71.24
2023-05-13T14:08:39.348Z,71.28
2023-05-13T14:11:46.404Z,68.73
2023-05-13T14:14:52.334Z,67.64
2023-05-13T14:18:01.847Z,77.77
2023-05-13T14:21:08.320Z,75.01
2023-05-13T14:24:16.303Z,78.22
2023-05-13T14:27:24.917Z,69.92
2023-05-13T14:30:31.784Z,70.22
2023-05-13T14:33:43.732Z,64.48
2023-05-13T14:36:50.514Z,68.62
2023-05-13T14:39:56.442Z,67.97
2023-05-13T14:43:05.070Z,73.52
2023-05-13T14:46:11.723Z,66.02
2023-05-13T14:49:27.530Z,77.51
2023-05-13T14:52:36.166Z,71.31
2023-05-13T14:55:43.064Z,74.07
2023-05-13T14:58:53.306Z,74.97
2023-05-13T15:02:04.554Z,72.68
2023-05-13T15:05:14.049Z,72.80
2023-05-13T15:08:21.573Z,82.24
2023-05-13T15:11:29.198Z,74.11
2023-05-13T15:14:36.034Z,82.53
2023-05-13T15:17:42.303Z,77.02
2023-05-13T15:20:51.925Z,83.60
2023-05-13T15:24:01.015Z,71.77
2023-05-13T15:27:08.682Z,95.05
2023-05-13T15:30:16.333Z,74.95
2023-05-13T15:33:23.102Z,79.77
2023-05-13T15:36:33.097Z,85.75
2023-05-13T15:39:39.995Z,83.86
2023-05-13T15:42:46.044Z,81.50
2023-05-13T15:45:53.844Z,88.52
2023-05-13T15:48:59.774Z,79.17
2023-05-13T15:52:11.599Z,95.22
2023-05-13T15:55:25.726Z,80.33
2023-05-13T15:58:34.552Z,90.50
2023-05-13T16:01:42.119Z,86.54
2023-05-13T16:04:51.525Z,87.82
2023-05-13T16:08:00.446Z,82.82
2023-05-13T16:11:07.377Z,88.18
2023-05-13T16:14:13.434Z,77.78
2023-05-13T16:17:33.333Z,69.69
2023-05-13T16:20:39.306Z,77.86
2023-05-13T16:23:48.600Z,82.08
2023-05-13T16:26:54.799Z,83.05
2023-05-13T16:30:12.629Z,89.38
2023-05-13T16:33:18.791Z,77.25
2023-05-13T16:36:27.084Z,96.10
2023-05-13T16:39:48.632Z,81.37
2023-05-13T16:43:02.512Z,79.69
2023-05-13T16:46:09.760Z,73.62
2023-05-13T16:49:16.610Z,83.79
2023-05-13T16:52:22.614Z,84.29
2023-05-13T16:55:33.361Z,95.66
2023-05-13T16:58:39.533Z,105.58
2023-05-13T17:01:46.495Z,117.74
2023-05-13T17:05:01.777Z,97.28
2023-05-13T17:08:11.496Z,89.15
2023-05-13T17:11:19.918Z,91.08
2023-05-13T17:14:28.484Z,97.36
2023-05-13T17:17:37.730Z,83.02
2023-05-13T17:20:45.998Z,89.03
2023-05-13T17:23:53.762Z,81.44
2023-05-13T17:27:03.219Z,89.76
2023-05-13T17:30:19.389Z,80.66
2023-05-13T17:33:26.237Z,92.00
2023-05-13T17:36:35.222Z,96.94
2023-05-13T17:39:41.952Z,96.70
2023-05-13T17:42:52.594Z,90.15
2023-05-13T17:45:59.735Z,90.66
2023-05-13T17:49:07.396Z,90.33
2023-05-13T17:52:14.236Z,96.92
2023-05-13T17:55:20.440Z,92.11
2023-05-13T17:58:30.078Z,95.89
2023-05-13T18:01:36.005Z,97.94
2023-05-13T18:04:42.917Z,98.53
2023-05-13T18:07:48.861Z,97.08
2023-05-13T18:11:09.186Z,106.25
2023-05-13T18:14:20.510Z,97.76
2023-05-13T18:17:27.660Z,106.99
2023-05-13T18:20:33.750Z,116.48
2023-05-13T18:23:40.816Z,109.42
2023-05-13T18:26:46.823Z,113.28
2023-05-13T18:29:56.304Z,113.55
2023-05-13T18:33:02.395Z,114.27
2023-05-13T18:36:10.988Z,119.87
2023-05-13T18:39:17.138Z,120.39
2023-05-13T18:42:25.547Z,113.23
2023-05-13T18:45:34.294Z,108.43
2023-05-13T18:48:41.374Z,109.72
2023-05-13T18:51:47.775Z,105.20
2023-05-13T18:55:08.502Z,106.87
2023-05-13T18:58:14.797Z,92.00
2023-05-13T19:01:24.425Z,109.81
2023-05-13T19:04:31.254Z,103.62
2023-05-13T19:07:38.459Z,134.26
2023-05-13T19:10:44.650Z,117.40
2023-05-13T19:14:07.825Z,123.00
2023-05-13T19:17:18.532Z,118.73
2023-05-13T19:20:32.639Z,121.82
2023-05-13T19:23:43.323Z,108.16
2023-05-13T19:26:50.532Z,120.46
2023-05-13T19:29:56.467Z,117.62
2023-05-13T19:33:08.317Z,120.26
2023-05-13T19:36:19.491Z,114.75
2023-05-13T19:39:26.428Z,124.62
2023-05-13T19:42:35.958Z,106.59
2023-05-13T19:45:43.137Z,121.63
2023-05-13T19:48:55.966Z,107.89
2023-05-13T19:52:02.897Z,121.13
2023-05-13T19:55:11.043Z,152.50
2023-05-13T19:58:17.974Z,137.63
2023-05-13T20:01:25.172Z,128.66
2023-05-13T20:04:34.723Z,139.66
2023-05-13T20:07:50.751Z,142.20
2023-05-13T20:11:11.008Z,149.42
2023-05-13T20:14:18.433Z,141.58
2023-05-13T20:17:33.490Z,155.70
2023-05-13T20:20:42.193Z,140.43
2023-05-13T20:23:48.902Z,150.11
2023-05-13T20:26:54.860Z,147.99
2023-05-13T20:30:02.455Z,144.52
2023-05-13T20:33:08.605Z,153.50
2023-05-13T20:36:18.163Z,144.51
2023-05-13T20:39:24.303Z,142.49
2023-05-13T20:42:31.041Z,150.52
2023-05-13T20:45:39.976Z,140.27
2023-05-13T20:48:47.782Z,144.18
2023-05-13T20:51:56.597Z,142.96
2023-05-13T20:55:03.661Z,149.34
2023-05-13T20:58:12.404Z,147.54
2023-05-13T21:01:19.315Z,151.31
2023-05-13T21:04:26.470Z,151.88
2023-05-13T21:07:37.948Z,142.73
2023-05-13T21:10:44.164Z,141.10
2023-05-13T21:13:51.337Z,141.87
2023-05-13T21:16:57.408Z,130.14
2023-05-13T21:20:04.697Z,146.56
2023-05-13T21:23:16.003Z,129.10
2023-05-13T21:26:23.432Z,130.52
2023-05-13T21:29:34.534Z,125.94
2023-05-13T21:32:41.410Z,132.54
2023-05-13T21:35:47.396Z,135.43
2023-05-13T21:38:56.950Z,144.57
2023-05-13T21:42:03.698Z,136.81
2023-05-13T21:45:12.272Z,148.45
2023-05-13T21:48:18.473Z,143.92
2023-05-13T21:51:26.080Z,153.59
2023-05-13T21:54:34.678Z,146.41
2023-05-13T21:57:41.553Z,147.46
2023-05-13T22:00:47.559Z,145.36
2023-05-13T22:03:54.311Z,153.16
2023-05-13T22:07:00.356Z,153.15
2023-05-13T22:10:11.725Z,155.20
2023-05-13T22:13:17.728Z,141.23
2023-05-13T22:16:24.819Z,154.37
2023-05-13T22:19:31.069Z,149.48
2023-05-13T22:22:37.899Z,145.13
2023-05-13T22:25:46.534Z,151.32
2023-05-13T22:29:47.760Z,150.32
2023-05-13T22:32:56.164Z,176.31
2023-05-13T22:36:02.122Z,169.42
2023-05-13T22:39:09.007Z,171.17
2023-05-13T22:42:15.082Z,236.42
2023-05-13T22:45:28.780Z,156.52
2023-05-13T22:48:34.920Z,158.76
2023-05-13T22:51:41.733Z,162.04
2023-05-13T22:54:47.861Z,156.45
2023-05-13T22:57:57.258Z,158.39
2023-05-13T23:01:05.792Z,164.74
2023-05-13T23:04:12.568Z,161.17
2023-05-13T23:07:18.441Z,155.97
2023-05-13T23:10:25.484Z,151.71
2023-05-13T23:13:31.861Z,155.43
2023-05-13T23:16:41.584Z,156.36
2023-05-13T23:19:47.696Z,159.49
2023-05-13T23:22:57.592Z,156.64
2023-05-13T23:26:04.590Z,148.82
2023-05-13T23:29:11.583Z,158.26
2023-05-13T23:32:20.272Z,149.26
2023-05-13T23:35:26.969Z,160.54
2023-05-13T23:38:32.901Z,163.16
2023-05-13T23:41:39.589Z,163.64
2023-05-13T23:44:46.464Z,148.05
2023-05-13T23:47:56.511Z,161.56
2023-05-13T23:51:02.380Z,159.25
2023-05-13T23:54:09.255Z,152.47
2023-05-13T23:57:15.923Z,148.92
